KINS

Details ICAO KINS (INS)
Name CREECH AFB
Region United States
Timezone America/Los_Angeles (UTC-8.0)
Plans Departing 12
Arriving 14
Stats Elevation 3,133 ft / 955 m (AMSL)
Location 36.586675° -115.676579°
Runways 2
Magnetic Variation 11.874° E
Sunrise 2018-01-21 14:52:46 UTC / 2018-01-21 06:52:46 Local
Sunset 2018-01-22 00:57:35 UTC / 2018-01-21 16:57:35 Local
Advertisement - Login to hide

Runways

ID Width Length Bearing (true) Bearing (mag) Surface Threshold Offset Overrun Length
08 150 ft / 46 m 8,984 ft / 2,738 m 92.33° 80.46° Asphalt 0 ft / 0 m 1,000 ft / 305 m
13 100 ft / 30 m 4,896 ft / 1,492 m 145.01° 133.14° Asphalt 468 ft / 143 m 450 ft / 137 m
26 150 ft / 46 m 8,984 ft / 2,738 m 272.35° 260.48° Asphalt 0 ft / 0 m 1,000 ft / 305 m
31 100 ft / 30 m 4,896 ft / 1,492 m 325.02° 313.15° Asphalt 0 ft / 0 m 300 ft / 91 m

Map

Weather


0- 5 10 15 20 25 30 35+ Temperature / ° C

Clouds and Precipitation
Forecast for 2018-01-22 06:00 UTC. Updated an hour ago

Ground ~20,000 ft ~40,000 ft Winds

METAR

KINS 220158Z AUTO 28003KT 10SM CLR 05/M11 A3025 RMK AO2 SLP252 T00521114 $

TAF

Not found

Frequencies

Recorded 121.12 MHz ASOS
Tower 118.30 MHz TWR
Ground 118.30 MHz GND
Warning: Do not use this data for real-world aviation or navigation. No guarantee of current accuracy is given.